sensor_id;sensor_type;location;lat;lon;timestamp;pressure;altitude;pressure_sealevel;temperature;humidity
31183;BME280;17813;0.000;0.000;2022-08-19T02:53:14;98783.97;;;20.70;87.84
31183;BME280;17813;0.000;0.000;2022-08-19T02:55:45;98791.88;;;20.72;87.59
31183;BME280;17813;0.000;0.000;2022-08-19T02:58:14;98793.69;;;20.79;87.54
31183;BME280;17813;0.000;0.000;2022-08-19T03:01:00;98800.63;;;20.74;87.26
31183;BME280;17813;0.000;0.000;2022-08-19T03:03:29;98803.13;;;20.83;87.55
31183;BME280;17813;0.000;0.000;2022-08-19T03:06:11;98795.69;;;20.85;87.06
31183;BME280;17813;0.000;0.000;2022-08-19T03:08:44;98794.16;;;20.91;87.25
31183;BME280;17813;0.000;0.000;2022-08-19T03:11:16;98801.88;;;20.94;87.01
31183;BME280;17813;0.000;0.000;2022-08-19T03:13:47;98805.41;;;20.95;86.85
31183;BME280;17813;0.000;0.000;2022-08-19T03:16:18;98803.22;;;20.98;87.03
31183;BME280;17813;0.000;0.000;2022-08-19T03:18:45;98810.59;;;21.04;86.92
31183;BME280;17813;0.000;0.000;2022-08-19T03:21:16;98806.88;;;21.05;86.47
31183;BME280;17813;0.000;0.000;2022-08-19T03:23:45;98808.19;;;21.09;86.22
31183;BME280;17813;0.000;0.000;2022-08-19T03:26:12;98816.78;;;21.13;86.32
31183;BME280;17813;0.000;0.000;2022-08-19T03:28:42;98822.81;;;21.15;86.13
31183;BME280;17813;0.000;0.000;2022-08-19T03:31:14;98823.66;;;21.15;85.79
31183;BME280;17813;0.000;0.000;2022-08-19T03:33:41;98826.84;;;21.19;85.90
31183;BME280;17813;0.000;0.000;2022-08-19T03:36:11;98823.50;;;21.17;85.86
31183;BME280;17813;0.000;0.000;2022-08-19T03:38:44;98828.72;;;21.18;85.91
31183;BME280;17813;0.000;0.000;2022-08-19T03:41:15;98830.75;;;21.16;85.88
31183;BME280;17813;0.000;0.000;2022-08-19T03:43:42;98825.53;;;21.15;85.88
31183;BME280;17813;0.000;0.000;2022-08-19T03:46:14;98816.28;;;21.09;85.88
31183;BME280;17813;0.000;0.000;2022-08-19T03:48:43;98818.16;;;21.09;85.91
31183;BME280;17813;0.000;0.000;2022-08-19T03:51:33;98813.63;;;21.01;85.51
31183;BME280;17813;0.000;0.000;2022-08-19T03:54:12;98818.00;;;21.02;85.87
31183;BME280;17813;0.000;0.000;2022-08-19T03:56:42;98818.50;;;21.06;85.85
31183;BME280;17813;0.000;0.000;2022-08-19T03:59:14;98823.06;;;21.05;85.78
31183;BME280;17813;0.000;0.000;2022-08-19T04:01:42;98836.34;;;21.07;85.65
31183;BME280;17813;0.000;0.000;2022-08-19T04:04:09;98836.72;;;21.04;85.86
31183;BME280;17813;0.000;0.000;2022-08-19T04:06:37;98836.88;;;21.02;85.77
31183;BME280;17813;0.000;0.000;2022-08-19T04:09:07;98843.13;;;21.03;85.64
31183;BME280;17813;0.000;0.000;2022-08-19T04:49:02;98822.66;;;20.85;86.16
31183;BME280;17813;0.000;0.000;2022-08-19T04:51:32;98822.78;;;20.92;85.87
31183;BME280;17813;0.000;0.000;2022-08-19T04:54:02;98828.00;;;20.94;85.83
31183;BME280;17813;0.000;0.000;2022-08-19T04:56:30;98832.19;;;20.96;85.76
31183;BME280;17813;0.000;0.000;2022-08-19T04:59:05;98832.38;;;20.95;85.61
31183;BME280;17813;0.000;0.000;2022-08-19T05:01:34;98833.88;;;20.97;85.72
31183;BME280;17813;0.000;0.000;2022-08-19T05:04:05;98824.59;;;21.00;85.59
31183;BME280;17813;0.000;0.000;2022-08-19T05:06:34;98826.28;;;21.01;85.59
31183;BME280;17813;0.000;0.000;2022-08-19T05:09:06;98824.78;;;20.98;85.41
31183;BME280;17813;0.000;0.000;2022-08-19T05:11:35;98813.69;;;20.93;85.96
31183;BME280;17813;0.000;0.000;2022-08-19T05:14:07;98807.63;;;20.91;85.89
31183;BME280;17813;0.000;0.000;2022-08-19T05:16:35;98825.31;;;20.94;86.10
31183;BME280;17813;0.000;0.000;2022-08-19T05:19:02;98817.56;;;20.91;86.22
31183;BME280;17813;0.000;0.000;2022-08-19T05:21:47;98818.41;;;20.91;86.27
31183;BME280;17813;0.000;0.000;2022-08-19T05:24:36;98813.03;;;20.91;86.56
31183;BME280;17813;0.000;0.000;2022-08-19T05:27:07;98807.63;;;20.91;86.40
31183;BME280;17813;0.000;0.000;2022-08-19T05:29:35;98808.28;;;20.93;86.44
31183;BME280;17813;0.000;0.000;2022-08-19T05:32:04;98818.09;;;20.86;86.96
31183;BME280;17813;0.000;0.000;2022-08-19T05:34:32;98824.81;;;20.90;86.77
31183;BME280;17813;0.000;0.000;2022-08-19T05:37:00;98816.38;;;20.93;86.73
31183;BME280;17813;0.000;0.000;2022-08-19T05:39:30;98808.78;;;20.97;86.49
31183;BME280;17813;0.000;0.000;2022-08-19T05:42:01;98816.69;;;20.98;86.39
31183;BME280;17813;0.000;0.000;2022-08-19T05:44:31;98818.00;;;21.02;86.40
31183;BME280;17813;0.000;0.000;2022-08-19T05:47:01;98820.34;;;21.05;86.48
31183;BME280;17813;0.000;0.000;2022-08-19T06:48:37;98957.81;;;21.53;85.66
31183;BME280;17813;0.000;0.000;2022-08-19T06:51:05;98953.59;;;21.58;85.26
31183;BME280;17813;0.000;0.000;2022-08-19T06:53:34;98946.81;;;21.62;84.81
31183;BME280;17813;0.000;0.000;2022-08-19T06:56:02;98951.84;;;21.65;85.01
31183;BME280;17813;0.000;0.000;2022-08-19T06:58:32;98966.72;;;21.61;84.76
31183;BME280;17813;0.000;0.000;2022-08-19T07:01:04;98964.69;;;21.63;84.66
31183;BME280;17813;0.000;0.000;2022-08-19T07:03:34;98976.13;;;21.65;84.74
31183;BME280;17813;0.000;0.000;2022-08-19T07:06:09;98963.00;;;21.62;84.48
31183;BME280;17813;0.000;0.000;2022-08-19T07:08:38;98963.00;;;21.62;84.36
31183;BME280;17813;0.000;0.000;2022-08-19T07:11:11;98952.22;;;21.62;84.46
31183;BME280;17813;0.000;0.000;2022-08-19T07:13:40;98940.56;;;21.62;84.51
31183;BME280;17813;0.000;0.000;2022-08-19T07:16:14;98948.19;;;21.58;84.56
31183;BME280;17813;0.000;0.000;2022-08-19T07:18:41;98943.44;;;21.60;84.45
31183;BME280;17813;0.000;0.000;2022-08-19T07:21:15;98947.22;;;21.51;84.50
31183;BME280;17813;0.000;0.000;2022-08-19T07:23:45;98948.72;;;21.54;84.48
31183;BME280;17813;0.000;0.000;2022-08-19T07:26:16;98960.53;;;21.53;84.48
31183;BME280;17813;0.000;0.000;2022-08-19T07:28:44;98960.84;;;21.58;84.27
31183;BME280;17813;0.000;0.000;2022-08-19T07:31:18;98958.00;;;21.51;84.24
31183;BME280;17813;0.000;0.000;2022-08-19T07:33:51;98961.44;;;21.37;84.94
31183;BME280;17813;0.000;0.000;2022-08-19T07:36:25;98969.19;;;21.40;84.87
31183;BME280;17813;0.000;0.000;2022-08-19T07:38:55;98972.91;;;21.39;85.18
31183;BME280;17813;0.000;0.000;2022-08-19T07:41:24;98976.44;;;21.39;85.22
31183;BME280;17813;0.000;0.000;2022-08-19T07:43:55;98974.78;;;21.30;85.09
31183;BME280;17813;0.000;0.000;2022-08-19T07:46:32;98978.50;;;21.29;85.10
31183;BME280;17813;0.000;0.000;2022-08-19T07:49:07;98977.00;;;21.27;86.04
31183;BME280;17813;0.000;0.000;2022-08-19T07:51:35;98982.19;;;21.36;85.28
31183;BME280;17813;0.000;0.000;2022-08-19T07:54:03;98989.94;;;21.39;85.36
31183;BME280;17813;0.000;0.000;2022-08-19T07:56:32;98998.72;;;21.33;85.18
31183;BME280;17813;0.000;0.000;2022-08-19T07:59:04;98998.72;;;21.33;84.73
31183;BME280;17813;0.000;0.000;2022-08-19T08:01:34;98995.31;;;21.39;84.60
31183;BME280;17813;0.000;0.000;2022-08-19T08:04:03;99001.75;;;21.38;84.42
31183;BME280;17813;0.000;0.000;2022-08-19T08:06:48;98991.59;;;21.40;84.30
31183;BME280;17813;0.000;0.000;2022-08-19T08:09:37;99003.28;;;21.33;84.17
31183;BME280;17813;0.000;0.000;2022-08-19T08:12:11;99008.47;;;21.42;83.67
31183;BME280;17813;0.000;0.000;2022-08-19T08:14:44;99007.97;;;21.39;83.98
31183;BME280;17813;0.000;0.000;2022-08-19T08:17:17;99007.63;;;21.42;83.85
31183;BME280;17813;0.000;0.000;2022-08-19T08:19:45;99010.50;;;21.40;83.52
31183;BME280;17813;0.000;0.000;2022-08-19T08:22:16;99008.16;;;21.37;83.33
31183;BME280;17813;0.000;0.000;2022-08-19T08:25:13;99015.44;;;21.29;83.65
31183;BME280;17813;0.000;0.000;2022-08-19T08:27:46;99015.78;;;21.26;83.54
31183;BME280;17813;0.000;0.000;2022-08-19T08:30:20;99019.81;;;21.30;83.28
31183;BME280;17813;0.000;0.000;2022-08-19T08:32:52;99022.31;;;21.31;83.64
31183;BME280;17813;0.000;0.000;2022-08-19T08:35:21;99026.53;;;21.34;83.49
31183;BME280;17813;0.000;0.000;2022-08-19T08:37:50;99027.38;;;21.34;83.23
31183;BME280;17813;0.000;0.000;2022-08-19T08:40:29;99031.56;;;21.37;83.39
31183;BME280;17813;0.000;0.000;2022-08-19T08:43:03;99019.59;;;21.39;83.46
31183;BME280;17813;0.000;0.000;2022-08-19T08:45:36;99015.53;;;21.43;83.08
31183;BME280;17813;0.000;0.000;2022-08-19T08:48:40;99007.94;;;21.47;82.74
31183;BME280;17813;0.000;0.000;2022-08-19T08:51:13;99005.72;;;21.50;82.84
31183;BME280;17813;0.000;0.000;2022-08-19T08:53:41;99008.75;;;21.56;82.67
31183;BME280;17813;0.000;0.000;2022-08-19T08:56:10;99010.06;;;21.60;81.97
31183;BME280;17813;0.000;0.000;2022-08-19T09:01:27;99032.66;;;21.59;82.18
31183;BME280;17813;0.000;0.000;2022-08-19T09:03:54;99028.44;;;21.64;82.08
31183;BME280;17813;0.000;0.000;2022-08-19T09:06:38;99017.16;;;21.61;81.98
31183;BME280;17813;0.000;0.000;2022-08-19T09:09:25;99011.56;;;21.62;82.07
31183;BME280;17813;0.000;0.000;2022-08-19T09:15:04;99008.88;;;21.62;81.80
31183;BME280;17813;0.000;0.000;2022-08-19T09:17:33;99001.94;;;21.68;82.18
31183;BME280;17813;0.000;0.000;2022-08-19T09:20:19;98995.69;;;21.67;82.00
31183;BME280;17813;0.000;0.000;2022-08-19T09:22:47;98993.53;;;21.63;82.08
31183;BME280;17813;0.000;0.000;2022-08-19T09:25:20;98996.41;;;21.61;81.75
31183;BME280;17813;0.000;0.000;2022-08-19T09:27:52;99001.13;;;21.59;82.18
31183;BME280;17813;0.000;0.000;2022-08-19T09:30:26;99010.47;;;21.48;82.52
31183;BME280;17813;0.000;0.000;2022-08-19T09:32:54;99010.91;;;21.60;82.28
31183;BME280;17813;0.000;0.000;2022-08-19T09:35:25;99013.78;;;21.59;82.50
31183;BME280;17813;0.000;0.000;2022-08-19T09:37:54;99018.16;;;21.60;82.16
31183;BME280;17813;0.000;0.000;2022-08-19T09:40:22;99028.13;;;21.59;82.27
31183;BME280;17813;0.000;0.000;2022-08-19T09:42:49;99024.97;;;21.47;82.98
31183;BME280;17813;0.000;0.000;2022-08-19T09:45:17;99021.94;;;21.42;82.89
31183;BME280;17813;0.000;0.000;2022-08-19T09:47:50;99020.63;;;21.38;82.69
31183;BME280;17813;0.000;0.000;2022-08-19T11:51:57;99057.41;;;22.01;73.00
31183;BME280;17813;0.000;0.000;2022-08-19T11:54:25;99055.06;;;22.06;72.13
31183;BME280;17813;0.000;0.000;2022-08-19T11:56:51;99044.88;;;22.17;72.52
31183;BME280;17813;0.000;0.000;2022-08-19T11:59:19;99041.75;;;22.28;72.55
31183;BME280;17813;0.000;0.000;2022-08-19T12:01:46;99038.66;;;22.54;72.59
31183;BME280;17813;0.000;0.000;2022-08-19T12:04:13;99048.50;;;22.69;71.66
31183;BME280;17813;0.000;0.000;2022-08-19T12:06:41;99047.59;;;22.77;71.39
31183;BME280;17813;0.000;0.000;2022-08-19T12:09:09;99048.31;;;22.71;71.08
31183;BME280;17813;0.000;0.000;2022-08-19T12:11:38;99050.47;;;22.75;71.31
31183;BME280;17813;0.000;0.000;2022-08-19T12:14:05;99041.00;;;22.80;71.28
31183;BME280;17813;0.000;0.000;2022-08-19T12:16:32;99047.91;;;22.82;71.26
31183;BME280;17813;0.000;0.000;2022-08-19T12:19:00;99047.53;;;22.85;71.93
31183;BME280;17813;0.000;0.000;2022-08-19T12:21:32;99043.81;;;22.86;71.14
31183;BME280;17813;0.000;0.000;2022-08-19T12:24:00;99041.59;;;22.90;70.95
31183;BME280;17813;0.000;0.000;2022-08-19T12:26:30;99041.16;;;22.78;70.62
31183;BME280;17813;0.000;0.000;2022-08-19T12:28:58;99045.88;;;22.61;70.63
31183;BME280;17813;0.000;0.000;2022-08-19T12:31:27;99050.75;;;22.43;70.76
31183;BME280;17813;0.000;0.000;2022-08-19T12:33:55;99051.03;;;22.48;71.50
31183;BME280;17813;0.000;0.000;2022-08-19T12:36:22;99048.22;;;22.41;71.22
31183;BME280;17813;0.000;0.000;2022-08-19T12:38:50;99056.38;;;22.33;71.46
31183;BME280;17813;0.000;0.000;2022-08-19T12:41:18;99072.28;;;22.28;71.60
31183;BME280;17813;0.000;0.000;2022-08-19T12:43:45;99060.13;;;22.32;71.28
31183;BME280;17813;0.000;0.000;2022-08-19T12:46:14;99067.13;;;22.41;71.58
31183;BME280;17813;0.000;0.000;2022-08-19T12:48:42;99060.66;;;22.51;71.23
31183;BME280;17813;0.000;0.000;2022-08-19T12:51:14;99062.81;;;22.55;70.72
31183;BME280;17813;0.000;0.000;2022-08-19T12:53:42;99058.75;;;22.74;70.69
31183;BME280;17813;0.000;0.000;2022-08-19T12:56:11;99062.66;;;22.71;70.37
31183;BME280;17813;0.000;0.000;2022-08-19T12:58:38;99066.47;;;22.85;70.02
31183;BME280;17813;0.000;0.000;2022-08-19T13:01:13;99064.59;;;22.63;68.93
31183;BME280;17813;0.000;0.000;2022-08-19T13:03:42;99069.66;;;22.66;69.57
31183;BME280;17813;0.000;0.000;2022-08-19T13:06:10;99076.38;;;22.70;69.79
31183;BME280;17813;0.000;0.000;2022-08-19T13:08:37;99075.72;;;22.68;69.11
31183;BME280;17813;0.000;0.000;2022-08-19T13:11:16;99073.44;;;22.57;69.36
31183;BME280;17813;0.000;0.000;2022-08-19T13:13:45;99074.28;;;22.57;69.77
31183;BME280;17813;0.000;0.000;2022-08-19T13:16:13;99079.69;;;22.57;70.17
31183;BME280;17813;0.000;0.000;2022-08-19T13:18:42;99084.44;;;22.55;69.85
31183;BME280;17813;0.000;0.000;2022-08-19T13:21:11;99080.22;;;22.53;70.72
31183;BME280;17813;0.000;0.000;2022-08-19T13:23:40;99080.59;;;22.50;70.29
31183;BME280;17813;0.000;0.000;2022-08-19T13:26:09;99076.09;;;22.42;70.63
31183;BME280;17813;0.000;0.000;2022-08-19T13:28:36;99082.50;;;22.41;70.34
31183;BME280;17813;0.000;0.000;2022-08-19T13:31:24;99074.28;;;22.34;70.52
31183;BME280;17813;0.000;0.000;2022-08-19T13:34:11;99068.88;;;22.34;70.61
31183;BME280;17813;0.000;0.000;2022-08-19T13:36:38;99061.91;;;22.40;70.75
31183;BME280;17813;0.000;0.000;2022-08-19T13:39:06;99076.19;;;22.49;70.56
31183;BME280;17813;0.000;0.000;2022-08-19T13:41:42;99071.63;;;22.49;69.99
31183;BME280;17813;0.000;0.000;2022-08-19T13:44:09;99076.31;;;22.55;70.36
31183;BME280;17813;0.000;0.000;2022-08-19T13:46:36;99066.94;;;22.66;70.15
31183;BME280;17813;0.000;0.000;2022-08-19T13:49:04;99059.75;;;22.81;70.17
31183;BME280;17813;0.000;0.000;2022-08-19T13:51:31;99061.75;;;23.02;70.10
31183;BME280;17813;0.000;0.000;2022-08-19T14:52:22;99059.78;;;22.96;69.48
31183;BME280;17813;0.000;0.000;2022-08-19T14:54:49;99057.53;;;22.99;69.17
31183;BME280;17813;0.000;0.000;2022-08-19T14:57:16;99054.47;;;23.02;69.21
31183;BME280;17813;0.000;0.000;2022-08-19T14:59:44;99065.09;;;23.04;69.26
31183;BME280;17813;0.000;0.000;2022-08-19T15:02:11;99062.13;;;22.99;68.95
31183;BME280;17813;0.000;0.000;2022-08-19T15:04:38;99063.03;;;22.91;69.21
31183;BME280;17813;0.000;0.000;2022-08-19T15:07:07;99059.50;;;22.91;69.34
31183;BME280;17813;0.000;0.000;2022-08-19T15:09:34;99055.94;;;22.90;69.67
31183;BME280;17813;0.000;0.000;2022-08-19T15:12:01;99056.78;;;22.91;69.22
31183;BME280;17813;0.000;0.000;2022-08-19T15:14:29;99057.16;;;22.88;69.30
31183;BME280;17813;0.000;0.000;2022-08-19T15:17:01;99056.06;;;22.74;69.61
31183;BME280;17813;0.000;0.000;2022-08-19T15:19:30;99061.47;;;22.74;69.59
31183;BME280;17813;0.000;0.000;2022-08-19T15:21:57;99055.59;;;22.70;69.64
31183;BME280;17813;0.000;0.000;2022-08-19T15:24:28;99063.50;;;22.72;69.38
31183;BME280;17813;0.000;0.000;2022-08-19T15:26:56;99057.44;;;22.70;69.47
31183;BME280;17813;0.000;0.000;2022-08-19T15:29:24;99063.69;;;22.70;69.60
31183;BME280;17813;0.000;0.000;2022-08-19T15:31:53;99055.41;;;22.72;69.93
31183;BME280;17813;0.000;0.000;2022-08-19T15:34:24;99053.34;;;22.74;69.81
31183;BME280;17813;0.000;0.000;2022-08-19T15:36:52;99056.72;;;22.76;69.51
31183;BME280;17813;0.000;0.000;2022-08-19T15:39:19;99063.16;;;22.75;68.53
31183;BME280;17813;0.000;0.000;2022-08-19T15:41:47;99056.97;;;22.66;68.75
31183;BME280;17813;0.000;0.000;2022-08-19T15:44:18;99067.00;;;22.58;68.51
31183;BME280;17813;0.000;0.000;2022-08-19T15:46:47;99059.94;;;22.57;68.70
31183;BME280;17813;0.000;0.000;2022-08-19T15:49:17;99061.50;;;22.51;68.29
31183;BME280;17813;0.000;0.000;2022-08-19T15:51:46;99067.44;;;22.46;67.75
31183;BME280;17813;0.000;0.000;2022-08-19T15:54:16;99057.47;;;22.47;68.00
31183;BME280;17813;0.000;0.000;2022-08-19T15:56:49;99067.06;;;22.50;68.30
31183;BME280;17813;0.000;0.000;2022-08-19T15:59:37;99061.38;;;22.44;68.51
31183;BME280;17813;0.000;0.000;2022-08-19T16:02:25;99059.41;;;22.38;68.27
31183;BME280;17813;0.000;0.000;2022-08-19T16:05:15;99043.91;;;22.32;67.45
31183;BME280;17813;0.000;0.000;2022-08-19T16:08:01;99042.88;;;22.33;67.86
31183;BME280;17813;0.000;0.000;2022-08-19T16:10:29;99046.91;;;22.37;67.61
31183;BME280;17813;0.000;0.000;2022-08-19T16:12:57;99049.97;;;22.34;67.54
31183;BME280;17813;0.000;0.000;2022-08-19T16:15:29;99046.25;;;22.35;67.43
31183;BME280;17813;0.000;0.000;2022-08-19T16:18:10;99041.31;;;22.39;67.52
31183;BME280;17813;0.000;0.000;2022-08-19T16:20:37;99047.38;;;22.41;67.69
31183;BME280;17813;0.000;0.000;2022-08-19T16:23:04;99049.72;;;22.44;67.30
31183;BME280;17813;0.000;0.000;2022-08-19T16:25:31;99050.44;;;22.38;67.02
31183;BME280;17813;0.000;0.000;2022-08-19T16:27:59;99056.03;;;22.36;67.21
31183;BME280;17813;0.000;0.000;2022-08-19T16:30:26;99058.72;;;22.36;67.50
31183;BME280;17813;0.000;0.000;2022-08-19T16:32:54;99063.13;;;22.37;67.46
31183;BME280;17813;0.000;0.000;2022-08-19T16:35:21;99061.25;;;22.38;67.38
31183;BME280;17813;0.000;0.000;2022-08-19T16:37:48;99061.25;;;22.38;67.84
31183;BME280;17813;0.000;0.000;2022-08-19T16:40:15;99062.63;;;22.34;66.84
31183;BME280;17813;0.000;0.000;2022-08-19T16:42:42;99052.00;;;22.32;67.32
31183;BME280;17813;0.000;0.000;2022-08-19T16:45:09;99048.09;;;22.35;67.95
31183;BME280;17813;0.000;0.000;2022-08-19T16:47:36;99064.31;;;22.35;68.05
31183;BME280;17813;0.000;0.000;2022-08-19T16:50:03;99071.28;;;22.29;67.60
31183;BME280;17813;0.000;0.000;2022-08-19T18:54:05;99110.25;;;20.35;75.61
31183;BME280;17813;0.000;0.000;2022-08-19T18:56:32;99116.47;;;20.35;75.55
31183;BME280;17813;0.000;0.000;2022-08-19T18:59:01;99110.91;;;20.29;76.23
31183;BME280;17813;0.000;0.000;2022-08-19T19:01:32;99114.59;;;20.19;76.59
31183;BME280;17813;0.000;0.000;2022-08-19T19:04:04;99112.06;;;20.18;76.38
31183;BME280;17813;0.000;0.000;2022-08-19T19:06:34;99118.78;;;20.14;76.67
31183;BME280;17813;0.000;0.000;2022-08-19T19:09:15;99119.75;;;20.05;77.46
31183;BME280;17813;0.000;0.000;2022-08-19T19:14:39;99132.91;;;20.08;77.29
31183;BME280;17813;0.000;0.000;2022-08-19T19:17:09;99136.78;;;20.13;77.23
31183;BME280;17813;0.000;0.000;2022-08-19T19:19:37;99142.53;;;20.18;77.02
31183;BME280;17813;0.000;0.000;2022-08-19T19:22:11;99146.56;;;20.22;76.96
31183;BME280;17813;0.000;0.000;2022-08-19T19:24:40;99139.00;;;20.26;76.83
31183;BME280;17813;0.000;0.000;2022-08-19T19:27:12;99134.31;;;20.28;76.95
31183;BME280;17813;0.000;0.000;2022-08-19T19:29:40;99131.44;;;20.30;76.88
31183;BME280;17813;0.000;0.000;2022-08-19T19:32:17;99128.06;;;20.28;76.81
31183;BME280;17813;0.000;0.000;2022-08-19T19:34:45;99132.97;;;20.32;77.04
31183;BME280;17813;0.000;0.000;2022-08-19T19:37:13;99136.31;;;20.26;77.39
31183;BME280;17813;0.000;0.000;2022-08-19T19:39:43;99129.22;;;20.17;77.71
31183;BME280;17813;0.000;0.000;2022-08-19T19:42:13;99124.50;;;20.11;77.89
31183;BME280;17813;0.000;0.000;2022-08-19T19:44:43;99134.94;;;20.14;77.87
31183;BME280;17813;0.000;0.000;2022-08-19T19:47:14;99140.00;;;20.17;78.07
31183;BME280;17813;0.000;0.000;2022-08-19T19:49:41;99148.75;;;20.19;77.96
31183;BME280;17813;0.000;0.000;2022-08-19T19:52:09;99141.69;;;20.18;78.41
31183;BME280;17813;0.000;0.000;2022-08-19T19:54:35;99150.94;;;20.15;78.46
31183;BME280;17813;0.000;0.000;2022-08-19T19:57:04;99149.53;;;20.03;78.97
31183;BME280;17813;0.000;0.000;2022-08-19T19:59:31;99152.41;;;20.02;78.94
31183;BME280;17813;0.000;0.000;2022-08-19T20:01:59;99141.63;;;20.02;78.74
31183;BME280;17813;0.000;0.000;2022-08-19T20:04:26;99153.22;;;20.02;78.99
31183;BME280;17813;0.000;0.000;2022-08-19T20:06:55;99158.94;;;19.99;78.85
31183;BME280;17813;0.000;0.000;2022-08-19T20:09:22;99161.78;;;19.98;79.06
31183;BME280;17813;0.000;0.000;2022-08-19T20:11:53;99156.06;;;19.92;79.10
31183;BME280;17813;0.000;0.000;2022-08-19T20:14:31;99155.50;;;19.81;79.93
31183;BME280;17813;0.000;0.000;2022-08-19T20:16:59;99161.41;;;19.84;79.82
31183;BME280;17813;0.000;0.000;2022-08-19T20:19:29;99165.78;;;19.85;79.62
31183;BME280;17813;0.000;0.000;2022-08-19T20:21:59;99165.28;;;19.90;79.57
31183;BME280;17813;0.000;0.000;2022-08-19T20:24:32;99166.81;;;19.92;79.49
31183;BME280;17813;0.000;0.000;2022-08-19T20:27:02;99165.66;;;19.95;79.50
31183;BME280;17813;0.000;0.000;2022-08-19T20:29:30;99158.09;;;19.99;79.35
31183;BME280;17813;0.000;0.000;2022-08-19T20:31:58;99154.91;;;20.03;79.09
31183;BME280;17813;0.000;0.000;2022-08-19T20:34:26;99152.06;;;20.05;79.00
31183;BME280;17813;0.000;0.000;2022-08-19T20:36:53;99148.19;;;20.07;79.17
31183;BME280;17813;0.000;0.000;2022-08-19T20:39:20;99149.91;;;20.08;78.94
31183;BME280;17813;0.000;0.000;2022-08-19T20:41:47;99149.38;;;20.05;79.14
31183;BME280;17813;0.000;0.000;2022-08-19T20:44:18;99144.31;;;20.02;79.05
31183;BME280;17813;0.000;0.000;2022-08-19T20:46:46;99147.34;;;19.99;78.87
31183;BME280;17813;0.000;0.000;2022-08-19T20:49:18;99155.56;;;19.97;78.96
31183;BME280;17813;0.000;0.000;2022-08-19T20:51:45;99160.63;;;20.00;78.95
31183;BME280;17813;0.000;0.000;2022-08-19T21:55:41;99176.94;;;19.65;80.26
31183;BME280;17813;0.000;0.000;2022-08-19T21:58:07;99178.31;;;19.69;80.14
31183;BME280;17813;0.000;0.000;2022-08-19T22:00:34;99176.16;;;19.72;80.11
31183;BME280;17813;0.000;0.000;2022-08-19T22:03:01;99170.91;;;19.71;79.96
31183;BME280;17813;0.000;0.000;2022-08-19T22:05:29;99175.56;;;19.61;80.64
31183;BME280;17813;0.000;0.000;2022-08-19T22:07:57;99176.22;;;19.54;80.59
31183;BME280;17813;0.000;0.000;2022-08-19T22:10:27;99173.97;;;19.50;80.72
31183;BME280;17813;0.000;0.000;2022-08-19T22:12:55;99169.59;;;19.49;80.76
31183;BME280;17813;0.000;0.000;2022-08-19T22:15:24;99162.16;;;19.43;80.91
31183;BME280;17813;0.000;0.000;2022-08-19T22:17:52;99166.38;;;19.45;80.65
31183;BME280;17813;0.000;0.000;2022-08-19T22:20:22;99155.63;;;19.45;80.79
31183;BME280;17813;0.000;0.000;2022-08-19T22:22:53;99164.03;;;19.50;80.88
31183;BME280;17813;0.000;0.000;2022-08-19T22:25:25;99162.22;;;19.51;80.78
31183;BME280;17813;0.000;0.000;2022-08-19T22:27:53;99162.06;;;19.52;80.62
31183;BME280;17813;0.000;0.000;2022-08-19T22:30:22;99166.91;;;19.49;80.71
31183;BME280;17813;0.000;0.000;2022-08-19T22:32:55;99167.84;;;19.40;81.29
31183;BME280;17813;0.000;0.000;2022-08-19T22:35:28;99161.19;;;19.26;81.92
31183;BME280;17813;0.000;0.000;2022-08-19T22:37:58;99165.06;;;19.23;82.09
31183;BME280;17813;0.000;0.000;2022-08-19T22:40:27;99172.44;;;19.21;82.10
31183;BME280;17813;0.000;0.000;2022-08-19T22:43:04;99176.91;;;19.13;82.59
31183;BME280;17813;0.000;0.000;2022-08-19T22:45:32;99171.69;;;19.11;82.42
31183;BME280;17813;0.000;0.000;2022-08-19T22:47:59;99178.06;;;19.10;82.70
31183;BME280;17813;0.000;0.000;2022-08-19T22:50:26;99177.53;;;19.07;83.21
31183;BME280;17813;0.000;0.000;2022-08-19T22:53:00;99192.81;;;19.06;82.58
31183;BME280;17813;0.000;0.000;2022-08-19T23:54:31;99206.25;;;18.88;84.10
31183;BME280;17813;0.000;0.000;2022-08-19T23:56:59;99196.03;;;18.92;83.89
31183;BME280;17813;0.000;0.000;2022-08-19T23:59:26;99195.72;;;18.95;83.97
